createdAt,value
2018-02-26T00:01:49.842Z,5.35
2018-02-26T00:04:17.270Z,4.78
2018-02-26T00:06:44.744Z,4.90
2018-02-26T00:09:12.182Z,5.20
2018-02-26T00:11:40.394Z,5.20
2018-02-26T00:14:07.818Z,5.72
2018-02-26T00:16:35.324Z,5.25
2018-02-26T00:19:02.771Z,5.28
2018-02-26T00:21:30.207Z,5.23
2018-02-26T00:23:57.650Z,5.30
2018-02-26T00:26:25.094Z,5.20
2018-02-26T00:28:52.541Z,5.32
2018-02-26T00:31:20.746Z,5.47
2018-02-26T00:33:48.174Z,5.37
2018-02-26T00:36:16.375Z,5.37
2018-02-26T00:38:43.934Z,6.00
2018-02-26T00:41:11.446Z,5.55
2018-02-26T00:43:39.653Z,6.03
2018-02-26T00:46:07.150Z,4.85
2018-02-26T00:48:34.591Z,6.20
2018-02-26T00:51:02.018Z,6.05
2018-02-26T00:53:29.458Z,5.00
2018-02-26T00:55:57.653Z,5.75
2018-02-26T00:58:25.125Z,6.03
2018-02-26T01:00:52.562Z,6.43
2018-02-26T01:03:20.069Z,6.00
2018-02-26T01:05:47.509Z,5.80
2018-02-26T01:08:14.949Z,6.10
2018-02-26T01:10:42.382Z,5.10
2018-02-26T01:13:09.910Z,5.75
2018-02-26T01:15:37.357Z,6.03
2018-02-26T01:18:04.793Z,5.68
2018-02-26T01:20:32.250Z,8.73
2018-02-26T01:22:59.706Z,5.90
2018-02-26T01:25:27.194Z,6.25
2018-02-26T01:27:54.614Z,6.10
2018-02-26T01:30:22.072Z,6.10
2018-02-26T01:32:49.506Z,5.43
2018-02-26T01:35:16.959Z,6.40
2018-02-26T01:37:44.463Z,6.20
2018-02-26T01:40:12.003Z,6.40
2018-02-26T01:42:39.446Z,6.85
2018-02-26T01:45:06.914Z,5.43
2018-02-26T01:47:34.358Z,5.60
2018-02-26T01:50:01.809Z,6.40
2018-02-26T01:52:29.282Z,5.60
2018-02-26T01:54:56.782Z,5.45
2018-02-26T01:57:25.018Z,5.40
2018-02-26T01:59:52.462Z,5.50
2018-02-26T02:02:19.937Z,5.82
2018-02-26T02:04:47.393Z,6.22
2018-02-26T02:07:14.840Z,7.32
2018-02-26T02:09:42.287Z,5.80
2018-02-26T02:12:09.728Z,6.00
2018-02-26T02:14:37.161Z,8.80
2018-02-26T02:17:05.378Z,6.40
2018-02-26T02:19:32.846Z,6.93
2018-02-26T02:22:00.293Z,6.03
2018-02-26T02:24:27.827Z,5.57
2018-02-26T02:26:55.268Z,6.40
2018-02-26T02:29:23.594Z,6.45
2018-02-26T02:31:51.047Z,6.75
2018-02-26T02:34:18.611Z,6.12
2018-02-26T02:36:46.067Z,5.82
2018-02-26T02:39:13.518Z,5.90
2018-02-26T02:41:40.962Z,6.20
2018-02-26T02:44:08.412Z,6.50
2018-02-26T02:46:35.888Z,5.85
2018-02-26T02:49:03.332Z,8.45
2018-02-26T02:51:30.766Z,8.07
2018-02-26T02:53:58.253Z,7.32
2018-02-26T02:56:25.718Z,6.70
2018-02-26T02:58:53.160Z,5.93
2018-02-26T03:01:20.616Z,6.20
2018-02-26T03:03:48.059Z,5.70
2018-02-26T03:06:15.511Z,6.10
2018-02-26T03:08:42.998Z,6.35
2018-02-26T03:11:10.537Z,5.15
2018-02-26T03:13:37.971Z,5.00
2018-02-26T03:16:05.549Z,4.77
2018-02-26T03:18:33.026Z,4.95
2018-02-26T03:21:00.468Z,5.10
2018-02-26T03:23:27.904Z,5.30
2018-02-26T03:25:56.106Z,4.80
2018-02-26T03:28:23.567Z,6.22
2018-02-26T03:30:51.015Z,5.60
2018-02-26T03:33:18.471Z,5.32
2018-02-26T03:35:45.919Z,5.20
2018-02-26T03:38:13.449Z,5.62
2018-02-26T03:40:41.640Z,5.72
2018-02-26T03:43:09.129Z,6.78
2018-02-26T03:45:36.578Z,6.20
2018-02-26T03:48:04.034Z,7.10
2018-02-26T03:50:31.458Z,6.62
2018-02-26T03:52:58.948Z,9.25
2018-02-26T03:55:26.407Z,5.82
2018-02-26T03:57:53.839Z,7.40
2018-02-26T04:00:21.286Z,6.90
2018-02-26T04:02:48.865Z,6.10
2018-02-26T04:05:16.302Z,5.80
2018-02-26T04:07:43.797Z,7.57
2018-02-26T04:10:11.253Z,6.45
2018-02-26T04:12:38.699Z,6.10
2018-02-26T04:15:06.168Z,6.50
2018-02-26T04:17:33.596Z,5.90
2018-02-26T04:20:01.085Z,6.00
2018-02-26T04:22:28.529Z,6.60
2018-02-26T04:24:56.000Z,6.20
2018-02-26T04:27:23.442Z,5.60
2018-02-26T04:29:50.956Z,6.20
2018-02-26T04:32:19.149Z,4.93
2018-02-26T04:34:46.579Z,6.18
2018-02-26T04:37:14.778Z,5.10
2018-02-26T04:39:42.217Z,6.00
2018-02-26T04:42:09.729Z,5.28
2018-02-26T04:44:37.166Z,5.70
2018-02-26T04:47:04.605Z,5.45
2018-02-26T04:49:32.055Z,5.65
2018-02-26T04:51:59.504Z,4.75
2018-02-26T04:54:27.695Z,5.72
2018-02-26T04:56:55.120Z,6.03
2018-02-26T04:59:22.577Z,5.93
2018-02-26T05:01:50.809Z,7.55
2018-02-26T05:04:18.258Z,5.12
2018-02-26T05:06:45.724Z,6.37
2018-02-26T05:09:13.142Z,5.70
2018-02-26T05:11:40.634Z,6.90
2018-02-26T05:14:08.270Z,6.25
2018-02-26T05:16:35.742Z,5.00
2018-02-26T05:19:03.198Z,5.67
2018-02-26T05:21:30.677Z,5.55
2018-02-26T05:23:58.230Z,5.32
2018-02-26T05:26:25.677Z,5.25
2018-02-26T05:28:53.145Z,5.53
2018-02-26T05:31:20.586Z,7.05
2018-02-26T05:33:48.023Z,4.53
2018-02-26T05:36:15.495Z,8.65
2018-02-26T05:38:42.947Z,6.60
2018-02-26T05:41:10.414Z,5.82
2018-02-26T05:43:37.886Z,6.00
2018-02-26T05:46:05.333Z,5.80
2018-02-26T05:48:32.790Z,5.22
2018-02-26T05:51:00.256Z,5.57
2018-02-26T05:53:27.681Z,7.05
2018-02-26T05:55:55.158Z,6.28
2018-02-26T05:58:22.602Z,5.20
2018-02-26T06:00:55.890Z,8.20
2018-02-26T06:03:23.379Z,5.40
2018-02-26T06:05:50.818Z,5.30
2018-02-26T06:08:18.268Z,6.18
2018-02-26T06:10:45.770Z,5.53
2018-02-26T06:13:13.207Z,6.30
2018-02-26T06:15:40.650Z,6.00
2018-02-26T06:18:08.086Z,7.50
2018-02-26T06:20:35.527Z,6.82
2018-02-26T06:23:03.029Z,6.78
2018-02-26T06:25:30.576Z,6.12
2018-02-26T06:27:58.036Z,7.18
2018-02-26T06:30:25.485Z,6.40
2018-02-26T06:32:52.947Z,5.80
2018-02-26T06:35:20.389Z,5.80
2018-02-26T06:37:47.842Z,6.90
2018-02-26T06:40:15.318Z,6.70
2018-02-26T06:42:42.774Z,6.70
2018-02-26T06:45:10.219Z,6.03
2018-02-26T06:47:37.665Z,6.70
2018-02-26T06:50:06.682Z,6.45
2018-02-26T06:52:34.126Z,5.80
2018-02-26T06:55:01.590Z,7.85
2018-02-26T06:57:29.043Z,5.95
2018-02-26T06:59:56.480Z,6.87
2018-02-26T07:02:23.964Z,6.18
2018-02-26T07:04:51.443Z,6.00
2018-02-26T07:07:18.891Z,7.95
2018-02-26T07:09:46.350Z,6.03
2018-02-26T07:12:14.591Z,6.87
2018-02-26T07:14:42.038Z,6.28
2018-02-26T07:17:09.471Z,7.95
2018-02-26T07:19:36.948Z,6.03
2018-02-26T07:22:04.390Z,6.37
2018-02-26T07:24:31.850Z,5.57
2018-02-26T07:26:59.293Z,6.87
2018-02-26T07:29:26.726Z,5.60
2018-02-26T07:31:54.185Z,5.75
2018-02-26T07:34:21.650Z,6.22
2018-02-26T07:36:49.085Z,7.68
2018-02-26T07:39:16.566Z,5.62
2018-02-26T07:41:44.003Z,7.03
2018-02-26T07:44:11.460Z,5.63
2018-02-26T07:46:38.897Z,5.10
2018-02-26T07:49:06.372Z,4.53
2018-02-26T07:51:33.813Z,4.70
2018-02-26T07:54:01.265Z,4.80
2018-02-26T07:56:28.744Z,4.40
2018-02-26T07:58:56.206Z,5.43
2018-02-26T08:01:23.642Z,6.80
2018-02-26T08:03:51.103Z,6.15
2018-02-26T08:06:18.560Z,4.72
2018-02-26T08:08:46.097Z,4.20
2018-02-26T08:11:13.543Z,3.95
2018-02-26T08:13:41.031Z,6.03
2018-02-26T08:16:08.514Z,4.25
2018-02-26T08:18:35.946Z,4.05
2018-02-26T08:21:04.358Z,3.85
2018-02-26T08:23:32.581Z,4.95
2018-02-26T08:26:00.003Z,5.32
2018-02-26T08:28:27.437Z,4.18
2018-02-26T08:30:55.658Z,4.20
2018-02-26T08:33:23.110Z,2.60
2018-02-26T08:35:50.574Z,3.30
2018-02-26T08:38:18.063Z,4.50
2018-02-26T08:40:45.458Z,3.10
2018-02-26T08:43:12.918Z,3.95
2018-02-26T08:45:40.363Z,3.55
2018-02-26T08:48:08.644Z,3.62
2018-02-26T08:50:36.874Z,4.50
2018-02-26T08:53:04.302Z,5.53
2018-02-26T08:55:31.751Z,4.25
2018-02-26T08:57:59.183Z,3.87
2018-02-26T09:00:27.419Z,6.57
2018-02-26T09:02:54.874Z,3.83
2018-02-26T09:05:22.343Z,3.65
2018-02-26T09:07:49.797Z,6.25
2018-02-26T09:10:17.289Z,4.20
2018-02-26T09:12:44.684Z,4.07
2018-02-26T09:15:12.907Z,4.97
2018-02-26T09:17:41.125Z,5.62
2018-02-26T09:20:08.606Z,4.57
2018-02-26T09:22:36.033Z,3.47
2018-02-26T09:25:03.494Z,3.90
2018-02-26T09:27:30.963Z,3.17
2018-02-26T09:29:58.400Z,3.97
2018-02-26T09:32:25.862Z,5.30
2018-02-26T09:34:53.393Z,5.40
2018-02-26T09:37:20.796Z,3.70
2018-02-26T09:39:48.230Z,4.37
2018-02-26T09:42:15.667Z,3.50
2018-02-26T09:44:43.278Z,3.62
2018-02-26T09:47:10.731Z,3.10
2018-02-26T09:49:43.911Z,3.92
2018-02-26T09:52:11.434Z,3.73
2018-02-26T09:54:38.882Z,4.30
2018-02-26T09:57:06.538Z,5.82
2018-02-26T09:59:34.954Z,3.83
2018-02-26T10:02:02.502Z,4.95
2018-02-26T10:04:30.006Z,3.40
2018-02-26T10:06:57.426Z,3.12
2018-02-26T10:09:24.853Z,3.67
2018-02-26T10:11:52.308Z,10.82
2018-02-26T10:14:19.771Z,4.20
2018-02-26T10:16:47.197Z,4.12
2018-02-26T10:19:14.667Z,3.50
2018-02-26T10:21:42.082Z,3.60
2018-02-26T10:24:09.538Z,3.10
2018-02-26T10:26:37.074Z,4.87
2018-02-26T10:29:04.539Z,3.70
2018-02-26T10:31:31.973Z,4.45
2018-02-26T10:33:59.437Z,4.47
2018-02-26T10:36:26.862Z,4.43
2018-02-26T10:38:54.386Z,4.00
2018-02-26T10:41:21.910Z,4.90
2018-02-26T10:43:49.330Z,3.05
2018-02-26T10:46:16.831Z,3.30
2018-02-26T10:48:44.326Z,3.92
2018-02-26T10:51:12.531Z,4.12
2018-02-26T10:53:40.217Z,4.15
2018-02-26T10:56:07.692Z,3.90
2018-02-26T10:58:35.234Z,3.87
2018-02-26T11:01:03.233Z,3.75
2018-02-26T11:03:30.667Z,3.20
2018-02-26T11:05:58.116Z,3.60
2018-02-26T11:08:25.610Z,3.42
2018-02-26T11:10:53.068Z,3.50
2018-02-26T11:13:20.502Z,3.77
2018-02-26T11:15:48.000Z,3.92
2018-02-26T11:18:15.719Z,4.10
2018-02-26T11:20:43.360Z,4.03
2018-02-26T11:23:11.226Z,4.00
2018-02-26T11:25:38.905Z,4.28
2018-02-26T11:28:06.467Z,4.32
2018-02-26T11:30:34.229Z,3.80
2018-02-26T11:33:01.868Z,4.10
2018-02-26T11:35:29.718Z,3.72
2018-02-26T11:37:57.500Z,3.45
2018-02-26T11:40:25.148Z,3.50
2018-02-26T11:42:52.804Z,3.53
2018-02-26T11:45:20.432Z,4.43
2018-02-26T11:47:48.796Z,3.78
2018-02-26T11:50:16.393Z,3.80
2018-02-26T11:52:44.230Z,4.15
2018-02-26T11:55:11.818Z,3.10
2018-02-26T11:57:39.624Z,3.37
2018-02-26T12:00:07.254Z,3.60
2018-02-26T12:02:35.388Z,3.83
2018-02-26T12:05:03.126Z,3.80
2018-02-26T12:07:30.972Z,3.37
2018-02-26T12:09:58.590Z,4.00
2018-02-26T12:12:27.141Z,3.10
2018-02-26T12:14:54.790Z,4.15
2018-02-26T12:17:22.361Z,3.20
2018-02-26T12:19:50.013Z,3.60
2018-02-26T12:22:17.654Z,3.80
2018-02-26T12:24:45.304Z,3.33
2018-02-26T12:27:12.979Z,4.03
2018-02-26T12:29:40.646Z,2.60
2018-02-26T12:32:08.232Z,3.00
2018-02-26T12:34:35.834Z,3.00
2018-02-26T12:37:03.426Z,3.00
2018-02-26T12:39:31.079Z,3.00
2018-02-26T12:41:58.725Z,4.03
2018-02-26T12:44:26.311Z,3.12
2018-02-26T12:46:53.962Z,3.70
2018-02-26T12:49:21.585Z,3.33
2018-02-26T12:51:49.288Z,3.40
2018-02-26T12:54:17.442Z,3.42
2018-02-26T12:56:45.110Z,2.90
2018-02-26T12:59:12.735Z,2.60
2018-02-26T13:01:41.210Z,3.00
2018-02-26T13:04:09.754Z,2.72
2018-02-26T13:06:37.395Z,3.42
2018-02-26T13:09:05.014Z,2.85
2018-02-26T13:11:33.587Z,3.28
2018-02-26T13:14:02.028Z,3.80
2018-02-26T13:16:29.642Z,2.30
2018-02-26T13:18:58.020Z,3.47
2018-02-26T13:21:26.426Z,3.20
2018-02-26T13:23:53.992Z,2.58
2018-02-26T13:26:21.642Z,2.70
2018-02-26T13:28:49.274Z,4.50
2018-02-26T13:31:17.708Z,3.10
2018-02-26T13:33:45.370Z,3.73
2018-02-26T13:36:12.974Z,2.90
2018-02-26T13:38:40.562Z,3.60
2018-02-26T13:41:08.947Z,4.15
2018-02-26T13:43:36.500Z,2.70
2018-02-26T13:46:04.095Z,3.20
2018-02-26T13:48:31.726Z,2.85
2018-02-26T13:51:00.141Z,4.35
2018-02-26T13:53:27.750Z,3.50
2018-02-26T13:55:55.358Z,3.20
2018-02-26T13:58:23.024Z,2.60
2018-02-26T14:00:50.623Z,4.20
2018-02-26T14:03:18.226Z,2.97
2018-02-26T14:05:45.825Z,2.90
2018-02-26T14:08:13.465Z,2.55
2018-02-26T14:10:41.075Z,4.30
2018-02-26T14:13:08.785Z,2.17
2018-02-26T14:15:36.392Z,3.10
2018-02-26T14:18:04.799Z,3.00
2018-02-26T14:20:32.414Z,3.25
2018-02-26T14:22:59.972Z,3.00
2018-02-26T14:25:28.405Z,3.92
2018-02-26T14:27:56.034Z,3.13
2018-02-26T14:30:23.657Z,3.10
2018-02-26T14:32:51.233Z,3.08
2018-02-26T14:35:19.582Z,4.03
2018-02-26T14:37:47.216Z,3.40
2018-02-26T14:40:14.956Z,3.00
2018-02-26T14:42:42.491Z,3.50
2018-02-26T14:45:10.898Z,2.95
2018-02-26T14:47:38.497Z,2.85
2018-02-26T14:50:06.977Z,3.70
2018-02-26T14:52:34.622Z,3.50
2018-02-26T14:55:02.224Z,5.28
2018-02-26T14:57:29.879Z,3.70
2018-02-26T14:59:57.494Z,3.90
2018-02-26T15:02:25.165Z,5.00
2018-02-26T15:04:52.930Z,4.00
2018-02-26T15:07:20.513Z,3.60
2018-02-26T15:09:48.186Z,3.85
2018-02-26T15:12:15.817Z,3.30
2018-02-26T15:14:43.456Z,2.80
2018-02-26T15:17:11.134Z,3.10
2018-02-26T15:19:38.735Z,3.60
2018-02-26T15:22:06.458Z,2.80
2018-02-26T15:24:34.057Z,3.12
2018-02-26T15:27:01.582Z,4.07
2018-02-26T15:29:29.972Z,3.10
2018-02-26T15:31:57.574Z,3.33
2018-02-26T15:34:25.960Z,3.40
2018-02-26T15:36:53.598Z,2.90
2018-02-26T15:39:21.211Z,2.70
2018-02-26T15:41:48.981Z,3.03
2018-02-26T15:44:16.639Z,3.55
2018-02-26T15:46:44.207Z,3.25
2018-02-26T15:49:11.813Z,5.30
2018-02-26T15:51:39.426Z,2.90
2018-02-26T15:54:07.022Z,3.20
2018-02-26T15:56:35.506Z,4.97
2018-02-26T15:59:03.877Z,4.03
2018-02-26T16:01:31.416Z,4.32
2018-02-26T16:03:59.031Z,5.30
2018-02-26T16:06:26.679Z,4.30
2018-02-26T16:08:54.993Z,3.53
2018-02-26T16:11:22.628Z,3.50
2018-02-26T16:13:50.204Z,4.80
2018-02-26T16:16:17.880Z,4.03
2018-02-26T16:18:45.648Z,5.35
2018-02-26T16:21:13.273Z,3.33
2018-02-26T16:23:40.892Z,3.30
2018-02-26T16:26:08.487Z,3.70
2018-02-26T16:28:36.092Z,4.10
2018-02-26T16:31:04.376Z,3.10
2018-02-26T16:33:31.931Z,4.15
2018-02-26T16:35:59.663Z,5.90
2018-02-26T16:38:27.266Z,2.17
2018-02-26T16:40:54.905Z,4.90
2018-02-26T16:43:22.873Z,2.10
2018-02-26T16:45:50.468Z,2.10
2018-02-26T16:48:18.054Z,2.40
2018-02-26T16:50:45.638Z,2.37
2018-02-26T16:53:13.226Z,1.70
2018-02-26T16:55:40.886Z,3.37
2018-02-26T16:58:08.506Z,3.22
2018-02-26T17:00:36.082Z,2.12
2018-02-26T17:03:03.708Z,2.30
2018-02-26T17:05:32.065Z,1.98
2018-02-26T17:07:59.677Z,2.35
2018-02-26T17:10:27.307Z,2.30
2018-02-26T17:12:55.626Z,2.20
2018-02-26T17:15:23.257Z,2.10
2018-02-26T17:17:50.877Z,4.00
2018-02-26T17:20:18.612Z,2.50
2018-02-26T17:22:46.277Z,2.65
2018-02-26T17:25:13.900Z,2.22
2018-02-26T17:27:41.571Z,1.98
2018-02-26T17:30:09.364Z,2.08
2018-02-26T17:32:37.232Z,2.35
2018-02-26T17:35:04.845Z,2.10
2018-02-26T17:37:33.221Z,1.90
2018-02-26T17:40:01.593Z,2.45
2018-02-26T17:42:29.957Z,2.00
2018-02-26T17:44:57.601Z,3.00
2018-02-26T17:47:25.448Z,2.37
2018-02-26T17:49:53.107Z,2.30
2018-02-26T17:52:20.769Z,1.90
2018-02-26T17:54:48.386Z,2.17
2018-02-26T17:57:16.812Z,2.28
2018-02-26T17:59:44.470Z,2.30
2018-02-26T18:02:12.065Z,2.72
2018-02-26T18:04:40.412Z,2.30
2018-02-26T18:07:08.022Z,4.18
2018-02-26T18:09:35.683Z,3.12
2018-02-26T18:12:04.023Z,2.85
2018-02-26T18:14:31.698Z,3.30
2018-02-26T18:16:59.430Z,2.78
2018-02-26T18:19:27.061Z,3.00
2018-02-26T18:21:54.756Z,4.03
2018-02-26T18:24:22.343Z,3.92
2018-02-26T18:26:49.965Z,3.03
2018-02-26T18:58:43.941Z,3.60
2018-02-26T19:01:11.501Z,3.78
2018-02-26T19:03:39.160Z,3.50
2018-02-26T19:06:06.814Z,3.10
2018-02-26T19:08:34.481Z,3.45
2018-02-26T19:11:02.134Z,4.75
2018-02-26T19:13:29.761Z,4.60
2018-02-26T19:15:57.413Z,4.18
2018-02-26T19:18:25.770Z,4.50
2018-02-26T19:20:53.519Z,6.80
2018-02-26T19:23:21.264Z,4.12
2018-02-26T19:25:48.940Z,5.00
2018-02-26T19:28:16.556Z,5.37
2018-02-26T19:30:44.251Z,5.22
2018-02-26T19:33:11.848Z,5.20
2018-02-26T19:35:39.484Z,5.18
2018-02-26T19:38:07.126Z,5.50
2018-02-26T19:40:34.763Z,4.78
2018-02-26T19:43:02.301Z,4.80
2018-02-26T19:45:30.672Z,5.80
2018-02-26T19:47:59.055Z,5.00
2018-02-26T19:50:27.399Z,6.50
2018-02-26T19:52:55.018Z,5.30
2018-02-26T19:55:23.345Z,5.35
2018-02-26T19:57:50.951Z,7.82
2018-02-26T20:00:18.540Z,5.70
2018-02-26T20:02:46.152Z,5.95
2018-02-26T20:05:14.508Z,7.12
2018-02-26T20:07:42.135Z,6.32
2018-02-26T20:10:09.816Z,8.45
2018-02-26T20:12:37.418Z,6.53
2018-02-26T20:15:05.748Z,7.50
2018-02-26T20:17:33.379Z,6.87
2018-02-26T20:20:00.968Z,6.53
2018-02-26T20:22:28.570Z,7.50
2018-02-26T20:24:56.930Z,7.30
2018-02-26T20:27:25.384Z,8.15
2018-02-26T20:29:53.045Z,7.60
2018-02-26T20:32:20.506Z,7.22
2018-02-26T20:34:48.159Z,7.40
2018-02-26T20:37:15.728Z,8.60
2018-02-26T20:39:43.332Z,7.57
2018-02-26T20:42:10.904Z,8.82
2018-02-26T20:44:38.526Z,7.07
2018-02-26T20:47:06.207Z,8.93
2018-02-26T20:49:34.589Z,6.62
2018-02-26T20:52:02.206Z,6.72
2018-02-26T20:54:29.834Z,9.20
2018-02-26T20:56:57.344Z,7.70
2018-02-26T20:59:24.976Z,6.57
2018-02-26T21:01:52.586Z,7.00
2018-02-26T21:04:20.964Z,6.55
2018-02-26T21:06:49.391Z,8.38
2018-02-26T21:09:16.928Z,6.15
2018-02-26T21:11:44.591Z,6.40
2018-02-26T21:14:12.267Z,6.35
2018-02-26T21:16:39.835Z,5.87
2018-02-26T21:19:07.486Z,6.70
2018-02-26T21:21:35.152Z,5.90
2018-02-26T21:24:02.809Z,6.43
2018-02-26T21:26:30.393Z,6.45
2018-02-26T21:28:57.966Z,6.62
2018-02-26T21:31:25.469Z,6.20
2018-02-26T21:33:53.096Z,6.00
2018-02-26T21:36:20.691Z,7.10
2018-02-26T21:38:48.282Z,6.20
2018-02-26T21:41:15.736Z,6.72
2018-02-26T21:43:43.160Z,6.18
2018-02-26T21:46:10.601Z,6.30
2018-02-26T21:48:38.838Z,6.22
2018-02-26T21:51:06.279Z,5.82
2018-02-26T21:53:33.738Z,5.80
2018-02-26T21:56:01.185Z,6.40
2018-02-26T21:58:28.626Z,6.47
2018-02-26T22:00:56.096Z,5.87
2018-02-26T22:03:23.594Z,5.82
2018-02-26T22:05:51.019Z,6.85
2018-02-26T22:08:18.483Z,8.68
2018-02-26T22:10:45.918Z,6.40
2018-02-26T22:13:13.371Z,5.95
2018-02-26T22:15:40.798Z,7.17
2018-02-26T22:18:09.027Z,7.78
2018-02-26T22:20:36.436Z,6.03
2018-02-26T22:23:04.647Z,5.75
2018-02-26T22:25:32.090Z,6.15
2018-02-26T22:27:59.546Z,5.70
2018-02-26T22:30:26.967Z,5.00
2018-02-26T22:32:55.172Z,5.00
2018-02-26T22:35:22.635Z,5.50
2018-02-26T22:37:50.062Z,5.20
2018-02-26T22:40:17.535Z,5.00
2018-02-26T22:42:44.984Z,4.70
2018-02-26T22:45:13.184Z,5.80
2018-02-26T22:47:40.617Z,5.55
2018-02-26T22:50:08.125Z,5.10
2018-02-26T22:52:35.566Z,5.10
2018-02-26T22:55:03.023Z,6.90
2018-02-26T22:57:30.443Z,5.87
2018-02-26T22:59:57.878Z,6.00
2018-02-26T23:02:26.130Z,5.15
2018-02-26T23:04:53.584Z,5.97
2018-02-26T23:07:21.022Z,5.40
2018-02-26T23:09:48.510Z,5.40
2018-02-26T23:12:15.959Z,6.25
2018-02-26T23:14:43.393Z,6.03
2018-02-26T23:17:10.846Z,5.32
2018-02-26T23:19:38.277Z,6.00
2018-02-26T23:22:05.730Z,6.35
2018-02-26T23:24:33.183Z,5.65
2018-02-26T23:27:00.644Z,5.40
2018-02-26T23:29:28.061Z,5.40
2018-02-26T23:31:56.290Z,6.35
2018-02-26T23:34:23.735Z,6.60
2018-02-26T23:36:51.185Z,6.12
2018-02-26T23:39:18.639Z,6.70
2018-02-26T23:41:46.242Z,6.37
2018-02-26T23:44:13.694Z,6.25
2018-02-26T23:46:41.145Z,7.18
2018-02-26T23:49:08.582Z,7.18
2018-02-26T23:51:36.273Z,6.80
2018-02-26T23:54:15.590Z,6.32
2018-02-26T23:56:43.030Z,6.10
2018-02-26T23:59:10.482Z,5.93
